createdAt,value
2023-04-02T00:00:23.380Z,26.20
2023-04-02T00:03:03.395Z,30.17
2023-04-02T00:05:59.678Z,29.73
2023-04-02T00:08:40.628Z,31.10
2023-04-02T00:11:11.838Z,27.67
2023-04-02T00:13:46.283Z,27.77
2023-04-02T00:16:27.040Z,26.65
2023-04-02T00:18:59.677Z,30.40
2023-04-02T00:21:39.555Z,28.42
2023-04-02T00:24:21.748Z,29.33
2023-04-02T00:26:52.153Z,27.45
2023-04-02T00:29:22.614Z,31.55
2023-04-02T00:31:54.560Z,29.07
2023-04-02T00:34:33.620Z,30.08
2023-04-02T00:37:07.898Z,26.35
2023-04-02T00:39:41.247Z,31.02
2023-04-02T00:42:14.384Z,32.38
2023-04-02T00:44:50.932Z,28.75
2023-04-02T00:47:28.217Z,28.52
2023-04-02T00:50:01.575Z,28.05
2023-04-02T00:52:34.015Z,30.85
2023-04-02T00:55:10.920Z,32.40
2023-04-02T00:57:44.912Z,32.95
2023-04-02T01:00:23.468Z,30.73
2023-04-02T01:03:29.494Z,32.50
2023-04-02T01:06:10.304Z,31.50
2023-04-02T01:08:56.484Z,28.13
2023-04-02T01:11:48.317Z,32.90
2023-04-02T01:14:39.207Z,30.35
2023-04-02T01:17:31.175Z,31.77
2023-04-02T01:20:41.867Z,30.98
2023-04-02T01:23:16.825Z,31.20
2023-04-02T01:25:50.568Z,27.23
2023-04-02T01:28:29.202Z,28.35
2023-04-02T01:31:04.484Z,30.00
2023-04-02T01:33:39.286Z,32.13
2023-04-02T01:36:17.492Z,26.63
2023-04-02T01:38:56.280Z,29.85
2023-04-02T01:41:31.995Z,30.65
2023-04-02T01:44:08.811Z,28.77
2023-04-02T01:46:44.465Z,29.90
2023-04-02T01:49:25.433Z,29.73
2023-04-02T01:52:07.037Z,27.33
2023-04-02T01:54:43.641Z,29.13
2023-04-02T01:57:14.317Z,28.30
2023-04-02T01:59:49.578Z,26.70
2023-04-02T02:02:23.341Z,29.67
2023-04-02T02:04:52.764Z,27.40
2023-04-02T02:07:23.859Z,29.67
2023-04-02T02:09:56.732Z,27.40
2023-04-02T02:12:30.929Z,25.73
2023-04-02T02:15:00.587Z,26.42
2023-04-02T02:17:34.461Z,30.55
2023-04-02T02:20:12.246Z,24.75
2023-04-02T02:22:45.374Z,24.48
2023-04-02T02:25:18.636Z,24.85
2023-04-02T02:27:55.967Z,25.17
2023-04-02T02:30:35.035Z,23.77
2023-04-02T02:33:13.933Z,22.60
2023-04-02T02:35:55.668Z,21.10
2023-04-02T02:38:59.375Z,25.13
2023-04-02T02:41:46.721Z,24.85
2023-04-02T02:44:25.785Z,23.55
2023-04-02T02:47:01.217Z,23.48
2023-04-02T02:49:35.898Z,21.65
2023-04-02T02:52:17.198Z,22.08
2023-04-02T02:55:13.785Z,25.05
2023-04-02T02:58:06.693Z,23.55
2023-04-02T03:00:45.820Z,26.60
2023-04-02T03:03:19.364Z,23.35
2023-04-02T03:06:05.026Z,23.83
2023-04-02T03:08:47.117Z,23.15
2023-04-02T03:11:29.579Z,26.17
2023-04-02T03:14:06.538Z,23.23
2023-04-02T03:16:41.737Z,22.42
2023-04-02T03:19:25.582Z,21.08
2023-04-02T03:22:05.581Z,23.15
2023-04-02T03:24:53.003Z,20.67
2023-04-02T03:27:26.658Z,20.60
2023-04-02T03:30:07.774Z,22.02
2023-04-02T03:32:42.168Z,20.48
2023-04-02T03:35:24.548Z,21.55
2023-04-02T03:38:00.804Z,19.45
2023-04-02T03:40:36.996Z,19.25
2023-04-02T03:43:14.983Z,22.55
2023-04-02T03:45:47.631Z,20.33
2023-04-02T03:48:25.270Z,19.80
2023-04-02T03:51:15.384Z,19.80
2023-04-02T03:53:53.497Z,19.35
2023-04-02T03:59:25.248Z,18.83
2023-04-02T04:02:04.100Z,16.40
2023-04-02T04:04:34.327Z,21.27
2023-04-02T04:07:03.952Z,19.63
2023-04-02T04:09:38.467Z,18.73
2023-04-02T04:15:00.268Z,18.60
2023-04-02T04:17:38.155Z,17.67
2023-04-02T04:20:21.538Z,17.65
2023-04-02T04:22:55.345Z,20.38
2023-04-02T04:25:34.479Z,20.52
2023-04-02T04:28:21.550Z,16.25
2023-04-02T04:31:03.817Z,17.60
2023-04-02T04:33:42.826Z,15.98
2023-04-02T04:36:28.558Z,17.98
2023-04-02T04:39:21.171Z,17.63
2023-04-02T04:41:56.085Z,20.05
2023-04-02T04:44:27.857Z,18.17
2023-04-02T04:47:06.083Z,16.52
2023-04-02T04:49:46.338Z,17.90
2023-04-02T04:52:22.324Z,20.35
2023-04-02T04:54:52.590Z,16.70
2023-04-02T04:57:35.736Z,19.00
2023-04-02T05:00:18.511Z,20.60
2023-04-02T05:02:54.078Z,20.35
2023-04-02T05:05:30.973Z,17.42
2023-04-02T05:08:17.012Z,18.27
2023-04-02T05:10:51.524Z,17.52
2023-04-02T05:13:30.606Z,18.85
2023-04-02T05:16:15.295Z,17.10
2023-04-02T05:18:51.219Z,18.77
2023-04-02T05:21:28.729Z,21.17
2023-04-02T05:24:08.760Z,19.77
2023-04-02T05:26:44.109Z,20.83
2023-04-02T05:29:22.460Z,18.77
2023-04-02T05:32:03.184Z,21.40
2023-04-02T05:34:42.135Z,20.63
2023-04-02T05:37:19.405Z,22.25
2023-04-02T05:39:54.311Z,20.70
2023-04-02T05:42:26.951Z,18.50
2023-04-02T05:45:16.250Z,17.70
2023-04-02T05:47:47.793Z,18.35
2023-04-02T05:50:30.097Z,17.98
2023-04-02T05:53:06.221Z,18.88
2023-04-02T05:58:37.181Z,21.50
2023-04-02T06:01:46.836Z,16.70
2023-04-02T06:04:26.680Z,21.67
2023-04-02T06:07:07.077Z,20.80
2023-04-02T06:12:18.508Z,18.02
2023-04-02T06:14:48.332Z,19.88
2023-04-02T06:17:22.076Z,18.40
2023-04-02T06:19:53.395Z,19.83
2023-04-02T06:22:36.199Z,19.67
2023-04-02T06:25:12.517Z,29.08
2023-04-02T06:27:47.477Z,20.35
2023-04-02T06:30:26.809Z,19.52
2023-04-02T06:32:58.228Z,18.27
2023-04-02T06:35:29.487Z,17.35
2023-04-02T06:38:07.550Z,19.15
2023-04-02T06:40:45.961Z,20.63
2023-04-02T06:43:43.219Z,20.70
2023-04-02T06:46:37.659Z,21.33
2023-04-02T06:49:25.094Z,19.38
2023-04-02T06:52:03.021Z,18.15
2023-04-02T06:54:35.400Z,22.85
2023-04-02T06:57:15.530Z,17.98
2023-04-02T06:59:47.663Z,20.15
2023-04-02T07:02:31.071Z,18.35
2023-04-02T07:05:08.767Z,19.52
2023-04-02T07:07:40.475Z,15.93
2023-04-02T07:10:19.245Z,18.17
2023-04-02T07:12:49.917Z,18.70
2023-04-02T07:15:23.662Z,18.83
2023-04-02T07:17:56.769Z,17.02
2023-04-02T07:20:33.310Z,18.10
2023-04-02T07:23:07.936Z,17.38
2023-04-02T07:25:37.537Z,21.70
2023-04-02T07:28:07.227Z,22.77
2023-04-02T07:30:36.461Z,22.48
2023-04-02T07:33:05.859Z,20.17
2023-04-02T07:35:37.480Z,15.77
2023-04-02T07:38:12.318Z,17.95
2023-04-02T07:40:42.080Z,15.88
2023-04-02T07:43:11.760Z,19.60
2023-04-02T07:45:41.476Z,23.95
2023-04-02T07:48:12.182Z,16.42
2023-04-02T07:50:45.596Z,17.30
2023-04-02T07:58:44.455Z,17.05
2023-04-02T08:01:26.547Z,14.13
2023-04-02T08:04:09.515Z,21.13
2023-04-02T08:06:40.849Z,19.83
2023-04-02T08:09:10.428Z,18.52
2023-04-02T08:11:42.597Z,19.50
2023-04-02T08:14:12.661Z,15.02
2023-04-02T08:16:49.552Z,16.67
2023-04-02T08:19:19.555Z,18.67
2023-04-02T08:21:54.097Z,18.33
2023-04-02T08:24:23.966Z,19.60
2023-04-02T08:26:53.331Z,17.85
2023-04-02T08:29:22.833Z,22.70
2023-04-02T08:31:52.337Z,21.55
2023-04-02T08:34:21.658Z,25.35
2023-04-02T08:36:59.047Z,21.83
2023-04-02T08:39:32.744Z,21.52
2023-04-02T08:42:18.480Z,28.88
2023-04-02T08:44:56.846Z,23.02
2023-04-02T08:47:30.560Z,17.63
2023-04-02T08:50:10.077Z,20.65
2023-04-02T08:52:41.794Z,23.08
2023-04-02T08:55:27.711Z,19.33
2023-04-02T08:58:07.322Z,18.98
2023-04-02T09:00:41.538Z,19.52
2023-04-02T09:03:17.059Z,19.67
2023-04-02T09:05:53.920Z,19.13
2023-04-02T09:08:27.198Z,19.05
2023-04-02T09:11:04.424Z,20.35
2023-04-02T09:13:37.270Z,17.35
2023-04-02T09:16:15.599Z,17.15
2023-04-02T09:18:46.877Z,21.88
2023-04-02T09:21:29.257Z,17.25
2023-04-02T09:24:01.218Z,16.23
2023-04-02T09:26:41.486Z,19.10
2023-04-02T09:29:41.140Z,21.67
2023-04-02T09:32:25.018Z,18.05
2023-04-02T09:35:24.545Z,16.48
2023-04-02T09:38:18.168Z,18.67
2023-04-02T09:43:24.958Z,15.90
2023-04-02T09:46:03.927Z,16.77
2023-04-02T09:48:36.508Z,18.42
2023-04-02T09:51:14.519Z,20.02
2023-04-02T09:53:51.046Z,14.93
2023-04-02T09:56:25.552Z,20.20
2023-04-02T09:59:05.951Z,17.15
2023-04-02T10:01:37.488Z,12.48
2023-04-02T10:04:08.372Z,16.02
2023-04-02T10:06:53.156Z,16.77
2023-04-02T10:09:29.996Z,17.95
2023-04-02T10:12:03.431Z,16.27
2023-04-02T10:14:37.523Z,19.88
2023-04-02T10:17:21.345Z,12.73
2023-04-02T10:19:57.086Z,16.25
2023-04-02T10:22:26.471Z,14.98
2023-04-02T10:24:55.696Z,14.55
2023-04-02T10:27:37.293Z,17.15
2023-04-02T10:30:21.012Z,11.23
2023-04-02T10:32:57.263Z,15.90
2023-04-02T10:35:40.676Z,13.98
2023-04-02T10:38:21.342Z,14.35
2023-04-02T10:40:56.971Z,14.93
2023-04-02T10:44:16.747Z,21.42
2023-04-02T10:47:01.989Z,12.95
2023-04-02T10:49:38.254Z,15.13
2023-04-02T10:52:13.279Z,13.88
2023-04-02T10:54:53.733Z,14.77
2023-04-02T10:57:35.742Z,19.55
2023-04-02T11:00:20.351Z,16.60
2023-04-02T11:03:05.752Z,16.85
2023-04-02T11:05:44.105Z,17.63
2023-04-02T11:08:21.068Z,16.13
2023-04-02T11:10:55.713Z,14.80
2023-04-02T11:13:29.666Z,14.45
2023-04-02T11:15:59.182Z,18.85
2023-04-02T11:18:35.705Z,13.35
2023-04-02T11:21:12.883Z,13.35
2023-04-02T11:23:58.340Z,15.27
2023-04-02T11:26:54.284Z,16.40
2023-04-02T11:29:27.649Z,17.95
2023-04-02T11:32:29.286Z,19.52
2023-04-02T11:35:38.327Z,15.90
2023-04-02T11:42:00.909Z,15.07
2023-04-02T11:44:35.563Z,17.80
2023-04-02T11:47:19.182Z,17.30
2023-04-02T11:50:27.402Z,17.90
2023-04-02T11:53:03.204Z,13.88
2023-04-02T11:55:34.910Z,18.50
2023-04-02T11:58:25.038Z,15.95
2023-04-02T12:01:32.558Z,20.45
2023-04-02T12:04:24.057Z,18.67
2023-04-02T12:07:10.464Z,20.08
2023-04-02T12:09:47.724Z,16.33
2023-04-02T12:12:29.651Z,20.45
2023-04-02T12:15:00.297Z,15.32
2023-04-02T12:17:40.851Z,18.08
2023-04-02T12:20:22.449Z,17.27
2023-04-02T12:22:59.511Z,17.23
2023-04-02T12:25:33.254Z,21.27
2023-04-02T12:28:07.515Z,22.63
2023-04-02T12:30:42.468Z,18.23
2023-04-02T12:33:30.395Z,17.70
2023-04-02T12:36:01.713Z,15.32
2023-04-02T12:38:32.789Z,17.85
2023-04-02T12:41:07.701Z,16.15
2023-04-02T12:43:42.018Z,20.00
2023-04-02T12:52:28.504Z,27.70
2023-04-02T12:55:00.052Z,12.38
2023-04-02T12:57:41.559Z,17.80
2023-04-02T13:00:37.846Z,15.55
2023-04-02T13:03:20.971Z,14.73
2023-04-02T13:05:55.893Z,13.38
2023-04-02T13:08:32.903Z,14.13
2023-04-02T13:11:03.861Z,15.10
2023-04-02T13:13:36.862Z,13.98
2023-04-02T13:16:29.772Z,15.43
2023-04-02T13:19:23.127Z,15.35
2023-04-02T13:21:52.754Z,14.57
2023-04-02T13:24:26.020Z,24.33
2023-04-02T13:26:58.145Z,17.45
2023-04-02T13:29:31.874Z,18.25
2023-04-02T13:32:03.289Z,14.48
2023-04-02T13:34:37.994Z,13.18
2023-04-02T13:37:07.176Z,16.77
2023-04-02T13:39:43.406Z,18.15
2023-04-02T13:42:13.908Z,13.48
2023-04-02T13:44:46.472Z,12.32
2023-04-02T13:47:16.771Z,13.88
2023-04-02T13:49:45.949Z,14.82
2023-04-02T13:52:17.926Z,18.95
2023-04-02T13:54:50.985Z,12.98
2023-04-02T14:00:07.364Z,13.70
2023-04-02T14:02:41.884Z,15.70
2023-04-02T14:05:29.295Z,12.43
2023-04-02T14:08:08.699Z,15.68
2023-04-02T14:11:01.413Z,13.13
2023-04-02T14:13:47.683Z,14.93
2023-04-02T14:16:35.195Z,14.48
2023-04-02T14:19:20.701Z,20.27
2023-04-02T14:22:05.696Z,13.15
2023-04-02T14:24:47.015Z,15.90
2023-04-02T14:27:33.478Z,15.23
2023-04-02T14:30:17.366Z,17.42
2023-04-02T14:33:04.882Z,13.48
2023-04-02T14:35:37.903Z,14.98
2023-04-02T14:38:21.623Z,11.90
2023-04-02T14:41:03.794Z,13.50
2023-04-02T14:43:43.033Z,12.90
2023-04-02T14:46:12.708Z,13.60
2023-04-02T14:48:52.502Z,11.43
2023-04-02T14:51:27.950Z,19.83
2023-04-02T14:54:03.331Z,17.58
2023-04-02T14:56:41.420Z,14.00
2023-04-02T14:59:31.035Z,10.95
2023-04-02T15:02:06.049Z,16.00
2023-04-02T15:04:40.018Z,13.52
2023-04-02T15:07:21.262Z,16.65
2023-04-02T15:09:57.184Z,13.57
2023-04-02T15:12:32.753Z,13.27
2023-04-02T15:15:10.763Z,19.90
2023-04-02T15:17:40.111Z,15.43
2023-04-02T15:20:16.481Z,16.45
2023-04-02T15:22:57.132Z,12.25
2023-04-02T15:25:35.624Z,10.43
2023-04-02T15:28:20.006Z,12.30
2023-04-02T15:30:58.586Z,14.00
2023-04-02T15:33:44.440Z,16.30
2023-04-02T15:36:48.487Z,21.75
2023-04-02T15:39:40.954Z,14.20
2023-04-02T15:42:18.365Z,21.08
2023-04-02T15:45:19.571Z,11.98
2023-04-02T15:48:18.228Z,17.85
2023-04-02T15:51:05.183Z,16.92
2023-04-02T15:53:47.881Z,12.27
2023-04-02T15:56:42.017Z,13.35
2023-04-02T15:59:36.765Z,19.80
2023-04-02T16:02:34.014Z,16.77
2023-04-02T16:05:12.133Z,19.02
2023-04-02T16:08:12.277Z,17.88
2023-04-02T16:10:44.730Z,13.85
2023-04-02T16:13:22.330Z,11.73
2023-04-02T16:15:56.078Z,17.35
2023-04-02T16:18:34.974Z,21.15
2023-04-02T16:21:06.580Z,14.38
2023-04-02T16:23:38.368Z,11.00
2023-04-02T16:26:23.054Z,16.45
2023-04-02T16:29:18.104Z,8.40
2023-04-02T16:31:55.647Z,10.60
2023-04-02T16:34:37.963Z,8.13
2023-04-02T16:37:17.349Z,8.30
2023-04-02T16:42:42.948Z,10.07
2023-04-02T16:45:30.970Z,11.20
2023-04-02T16:48:16.495Z,10.07
2023-04-02T16:51:10.729Z,10.13
2023-04-02T16:54:01.465Z,9.73
2023-04-02T16:56:46.503Z,9.23
2023-04-02T16:59:30.230Z,13.93
2023-04-02T17:02:10.261Z,10.32
2023-04-02T17:04:58.788Z,12.77
2023-04-02T17:07:38.232Z,14.02
2023-04-02T17:10:32.768Z,9.93
2023-04-02T17:13:17.502Z,12.73
2023-04-02T17:15:55.828Z,12.20
2023-04-02T17:18:26.706Z,9.85
2023-04-02T17:20:56.815Z,12.80
2023-04-02T17:23:26.829Z,14.30
2023-04-02T17:26:03.044Z,10.85
2023-04-02T17:28:47.661Z,11.10
2023-04-02T17:31:26.000Z,10.77
2023-04-02T17:33:55.472Z,7.47
2023-04-02T17:36:42.818Z,11.27
2023-04-02T17:39:35.478Z,12.50
2023-04-02T17:42:15.916Z,12.55
2023-04-02T17:44:56.917Z,9.30
2023-04-02T17:47:40.448Z,15.88
2023-04-02T17:50:39.458Z,16.00
2023-04-02T17:53:21.445Z,13.40
2023-04-02T17:58:57.317Z,11.52
2023-04-02T18:01:33.939Z,13.82
2023-04-02T18:04:15.256Z,11.30
2023-04-02T18:06:56.261Z,9.02
2023-04-02T18:09:41.667Z,8.13
2023-04-02T18:12:26.787Z,11.00
2023-04-02T18:15:13.771Z,9.30
2023-04-02T18:17:50.442Z,8.77
2023-04-02T18:20:29.073Z,10.50
2023-04-02T18:23:06.474Z,9.60
2023-04-02T18:25:56.268Z,12.63
2023-04-02T18:28:39.871Z,10.98
2023-04-02T18:31:19.815Z,10.27
2023-04-02T18:34:32.492Z,9.02
2023-04-02T18:37:10.378Z,9.52
2023-04-02T18:39:54.519Z,9.60
2023-04-02T18:42:35.837Z,11.80
2023-04-02T18:45:14.063Z,7.28
2023-04-02T18:47:55.009Z,11.82
2023-04-02T18:50:31.448Z,9.73
2023-04-02T18:53:00.983Z,11.77
2023-04-02T18:55:32.343Z,8.02
2023-04-02T18:58:07.302Z,14.63
2023-04-02T19:00:41.002Z,7.88
2023-04-02T19:03:25.382Z,12.57
2023-04-02T19:06:00.684Z,8.88
2023-04-02T19:08:34.632Z,13.88
2023-04-02T19:11:09.286Z,9.45
2023-04-02T19:13:38.802Z,8.68
2023-04-02T19:16:24.375Z,12.40
2023-04-02T19:19:10.761Z,14.38
2023-04-02T19:21:57.112Z,9.85
2023-04-02T19:24:43.719Z,9.65
2023-04-02T19:27:22.342Z,12.18
2023-04-02T19:30:12.894Z,10.80
2023-04-02T19:32:51.946Z,8.15
2023-04-02T19:35:33.974Z,10.50
2023-04-02T19:38:16.360Z,8.15
2023-04-02T19:40:54.853Z,9.95
2023-04-02T19:43:25.831Z,8.32
2023-04-02T19:46:03.614Z,9.85
2023-04-02T19:48:38.973Z,7.13
2023-04-02T19:51:15.343Z,8.30
2023-04-02T19:53:44.725Z,9.27
2023-04-02T19:56:14.053Z,6.68
2023-04-02T19:58:56.658Z,9.60
2023-04-02T20:01:26.107Z,8.75
2023-04-02T20:04:00.757Z,11.05
2023-04-02T20:06:32.873Z,11.15
2023-04-02T20:09:03.088Z,10.90
2023-04-02T20:11:32.637Z,11.18
2023-04-02T20:14:01.855Z,9.50
2023-04-02T20:19:07.354Z,10.25
2023-04-02T20:21:39.833Z,10.43
2023-04-02T20:24:14.219Z,11.15
2023-04-02T20:26:43.604Z,9.43
2023-04-02T20:29:12.938Z,9.50
2023-04-02T20:31:42.154Z,7.57
2023-04-02T20:34:12.354Z,8.13
2023-04-02T20:36:49.202Z,9.50
2023-04-02T20:39:19.200Z,8.23
2023-04-02T20:41:48.840Z,10.30
2023-04-02T20:44:18.277Z,8.90
2023-04-02T20:46:47.548Z,7.95
2023-04-02T20:49:16.933Z,9.23
2023-04-02T20:51:48.644Z,8.23
2023-04-02T20:54:18.866Z,9.38
2023-04-02T20:56:48.039Z,7.90
2023-04-02T20:59:17.532Z,8.23
2023-04-02T21:01:47.937Z,8.73
2023-04-02T21:04:17.745Z,10.50
2023-04-02T21:06:48.931Z,13.00
2023-04-02T21:09:21.032Z,8.68
2023-04-02T21:11:50.699Z,9.43
2023-04-02T21:14:19.940Z,11.63
2023-04-02T21:16:49.465Z,11.25
2023-04-02T21:19:18.714Z,12.55
2023-04-02T21:21:50.138Z,10.00
2023-04-02T21:24:19.547Z,10.82
2023-04-02T21:26:49.183Z,8.63
2023-04-02T21:29:23.680Z,11.18
2023-04-02T21:31:53.040Z,12.68
2023-04-02T21:34:22.484Z,11.48
2023-04-02T21:36:55.238Z,10.10
2023-04-02T21:39:42.462Z,9.13
2023-04-02T21:42:13.532Z,11.13
2023-04-02T21:44:49.010Z,9.27
2023-04-02T21:47:18.408Z,10.38
2023-04-02T21:49:47.797Z,9.48
2023-04-02T21:52:19.326Z,8.10
2023-04-02T21:54:48.705Z,9.27
2023-04-02T21:57:19.041Z,12.30
2023-04-02T21:59:56.585Z,8.52
2023-04-02T22:02:25.958Z,9.15
2023-04-02T22:04:55.300Z,14.02
2023-04-02T22:07:31.712Z,10.82
2023-04-02T22:10:01.130Z,10.07
2023-04-02T22:12:30.828Z,11.55
2023-04-02T22:15:00.213Z,12.30
2023-04-02T22:17:29.468Z,8.65
2023-04-02T22:19:58.775Z,10.60
2023-04-02T22:22:28.519Z,12.95
2023-04-02T22:25:07.030Z,11.02
2023-04-02T22:27:36.358Z,14.43
2023-04-02T22:30:06.454Z,12.13
2023-04-02T22:32:36.237Z,13.15
2023-04-02T22:35:06.211Z,12.50
2023-04-02T22:37:35.880Z,13.00
2023-04-02T22:40:07.995Z,12.13
2023-04-02T22:42:38.039Z,14.75
2023-04-02T22:45:08.129Z,12.43
2023-04-02T22:47:42.564Z,12.63
2023-04-02T22:50:12.676Z,15.93
2023-04-02T22:53:00.164Z,10.50
2023-04-02T22:55:36.582Z,14.88
2023-04-02T22:58:05.786Z,14.43
2023-04-02T23:00:35.229Z,15.75
2023-04-02T23:03:05.277Z,16.38
2023-04-02T23:05:34.543Z,14.13
2023-04-02T23:08:03.773Z,13.75
2023-04-02T23:10:40.076Z,15.55
2023-04-02T23:13:09.597Z,13.00
2023-04-02T23:15:43.914Z,13.32
2023-04-02T23:18:13.452Z,20.30
2023-04-02T23:20:43.214Z,12.05
2023-04-02T23:23:27.806Z,15.98
2023-04-02T23:26:08.561Z,15.18
2023-04-02T23:28:39.323Z,12.50
2023-04-02T23:31:10.869Z,15.73
2023-04-02T23:33:40.180Z,13.98
2023-04-02T23:36:20.950Z,16.33
2023-04-02T23:38:50.441Z,12.33
2023-04-02T23:41:21.784Z,16.42
2023-04-02T23:43:54.065Z,13.98
2023-04-02T23:46:28.987Z,17.30
2023-04-02T23:48:59.438Z,17.55
2023-04-02T23:51:29.616Z,14.73
2023-04-02T23:53:59.002Z,18.83
2023-04-02T23:56:35.902Z,18.05
